Time;durP1;ratioP1;P1;durP2;ratioP2;P2;SDS_P1;SDS_P2;PMS_P1;PMS_P2;Temp;Humidity;BMP_temperature;BMP_pressure;BME280_temperature;BME280_humidity;BME280_pressure;Samples;Min_cycle;Max_cycle;Signal;HPM_P1;HPM_P2
2023/03/22 00:01:23;;;;;;;;;;;;;;;7.95;88.63;98444.28;5085708;28;20455;-80
2023/03/22 00:03:50;;;;;;;;;;;;;;;7.68;89.20;98438.78;5075326;28;19970;-79
2023/03/22 00:06:15;;;;;;;;;;;;;;;7.96;88.18;98432.59;5084435;28;19920;-80
2023/03/22 00:08:41;;;;;;;;;;;;;;;7.23;90.45;98427.34;5050328;28;19932;-79
2023/03/22 00:11:06;;;;;;;;;;;;;;;7.16;91.12;98432.81;5066367;28;19946;-80
2023/03/22 00:13:33;;;;;;;;;;;;;;;7.54;90.14;98418.88;5079992;28;19916;-80
2023/03/22 00:15:58;;;;;;;;;;;;;;;7.80;88.22;98418.25;5079700;28;20280;-80
2023/03/22 00:18:24;;;;;;;;;;;;;;;7.44;88.21;98418.72;5081138;28;19926;-80
2023/03/22 00:20:51;;;;;;;;;;;;;;;7.72;87.96;98410.69;5081132;28;19916;-80
2023/03/22 00:23:16;;;;;;;;;;;;;;;7.19;90.24;98415.56;5079991;28;19920;-80
2023/03/22 00:25:42;;;;;;;;;;;;;;;6.92;90.77;98415.34;5081233;28;19916;-79
2023/03/22 00:28:08;;;;;;;;;;;;;;;7.06;90.70;98415.84;5080179;28;20335;-80
2023/03/22 00:30:33;;;;;;;;;;;;;;;6.85;92.15;98411.19;5055811;28;19932;-77
2023/03/22 00:32:58;;;;;;;;;;;;;;;6.77;92.25;98407.88;5040872;28;19934;-78
2023/03/22 00:35:23;;;;;;;;;;;;;;;6.70;93.17;98409.06;5057500;28;19935;-78
2023/03/22 00:37:50;;;;;;;;;;;;;;;7.18;91.98;98409.47;5054696;28;20461;-77
2023/03/22 00:40:15;;;;;;;;;;;;;;;7.23;90.32;98403.47;5060069;28;19947;-78
2023/03/22 00:42:40;;;;;;;;;;;;;;;7.10;92.06;98409.84;5078800;28;19916;-78
2023/03/22 00:45:07;;;;;;;;;;;;;;;7.09;92.14;98404.78;5078333;28;19916;-78
2023/03/22 00:47:33;;;;;;;;;;;;;;;7.07;91.64;98401.56;5062756;28;19985;-78
2023/03/22 00:49:58;;;;;;;;;;;;;;;7.40;90.00;98389.16;5067130;28;20388;-78
2023/03/22 00:52:24;;;;;;;;;;;;;;;7.52;89.00;98395.22;5051193;28;19928;-78
2023/03/22 00:54:50;;;;;;;;;;;;;;;7.81;87.82;98397.81;5088444;28;19932;-78
2023/03/22 00:57:16;;;;;;;;;;;;;;;7.57;88.20;98389.19;5063125;28;19948;-78
2023/03/22 00:59:41;;;;;;;;;;;;;;;7.52;88.53;98389.09;5065652;28;19921;-78
2023/03/22 01:02:12;;;;;;;;;;;;;;;7.61;88.49;98392.16;5072288;28;19920;-77
2023/03/22 01:04:38;;;;;;;;;;;;;;;7.71;86.53;98392.34;5086907;28;20529;-78
2023/03/22 01:07:06;;;;;;;;;;;;;;;7.61;87.87;98382.34;5085695;28;20307;-78
2023/03/22 01:09:32;;;;;;;;;;;;;;;7.81;87.25;98387.19;5086523;28;20265;-80
2023/03/22 01:11:58;;;;;;;;;;;;;;;7.79;86.97;98389.28;5082977;28;19982;-78
2023/03/22 01:14:24;;;;;;;;;;;;;;;7.84;86.68;98378.75;5053702;28;19928;-78
2023/03/22 01:16:49;;;;;;;;;;;;;;;7.56;89.05;98369.78;5084394;28;19944;-78
2023/03/22 01:19:15;;;;;;;;;;;;;;;7.82;87.49;98373.66;5084076;28;20372;-80
2023/03/22 01:21:40;;;;;;;;;;;;;;;7.71;87.70;98374.53;5086716;28;19920;-78
2023/03/22 01:24:06;;;;;;;;;;;;;;;7.81;87.82;98360.63;5078996;28;20316;-77
2023/03/22 01:26:31;;;;;;;;;;;;;;;7.83;86.89;98371.81;5070580;28;19978;-77
2023/03/22 01:28:56;;;;;;;;;;;;;;;7.77;87.45;98365.63;5080187;28;20337;-77
2023/03/22 01:31:21;;;;;;;;;;;;;;;7.90;86.92;98357.31;5065918;28;19920;-77
2023/03/22 01:33:47;;;;;;;;;;;;;;;7.86;87.93;98360.72;5083454;28;19955;-78
2023/03/22 01:36:12;;;;;;;;;;;;;;;7.67;87.73;98356.66;5063113;28;19927;-78
2023/03/22 01:38:37;;;;;;;;;;;;;;;7.86;87.22;98348.25;5063915;28;20202;-78
2023/03/22 01:41:02;;;;;;;;;;;;;;;7.86;87.39;98358.88;5064029;28;19920;-78
2023/03/22 01:43:28;;;;;;;;;;;;;;;7.84;88.17;98350.31;5051413;28;19935;-78
2023/03/22 01:45:53;;;;;;;;;;;;;;;7.86;87.81;98348.25;5081484;28;19943;-78
2023/03/22 01:48:19;;;;;;;;;;;;;;;7.82;87.78;98349.75;5063126;28;20027;-78
2023/03/22 01:50:47;;;;;;;;;;;;;;;7.77;87.87;98349.69;5075527;28;19916;-78
2023/03/22 01:53:13;;;;;;;;;;;;;;;7.79;88.27;98346.78;5083977;28;19931;-78
2023/03/22 01:55:38;;;;;;;;;;;;;;;7.65;88.45;98345.47;5063842;28;19920;-78
2023/03/22 01:58:04;;;;;;;;;;;;;;;7.78;87.91;98345.97;5083398;28;19935;-78
2023/03/22 02:00:29;;;;;;;;;;;;;;;7.74;87.57;98349.34;5083381;28;20303;-77
2023/03/22 02:02:55;;;;;;;;;;;;;;;7.76;87.94;98348.06;5068430;28;19924;-78
2023/03/22 02:05:21;;;;;;;;;;;;;;;7.75;88.32;98350.97;5090542;28;19916;-78
2023/03/22 02:07:47;;;;;;;;;;;;;;;7.80;88.19;98341.22;5074824;28;19920;-78
2023/03/22 02:10:17;;;;;;;;;;;;;;;7.76;88.73;98352.56;5089966;28;19969;-79
2023/03/22 02:12:51;;;;;;;;;;;;;;;7.62;88.62;98340.69;5080650;28;19961;-78
2023/03/22 02:15:26;;;;;;;;;;;;;;;7.72;88.35;98346.13;5085942;28;19920;-79
2023/03/22 02:18:05;;;;;;;;;;;;;;;7.75;88.33;98350.97;5074019;28;19970;-78
2023/03/22 02:20:49;;;;;;;;;;;;;;;7.75;88.20;98343.00;5077903;28;19925;-78
2023/03/22 02:23:20;;;;;;;;;;;;;;;7.76;89.00;98336.63;5086632;28;19927;-79
2023/03/22 02:25:57;;;;;;;;;;;;;;;7.83;88.17;98345.25;5083199;28;19916;-79
2023/03/22 02:28:41;;;;;;;;;;;;;;;7.87;87.68;98344.50;5089101;28;21583;-78
2023/03/22 02:31:19;;;;;;;;;;;;;;;7.81;88.48;98342.84;5065266;28;19916;-78
2023/03/22 02:34:05;;;;;;;;;;;;;;;7.79;88.70;98342.28;5082754;28;19931;-78
2023/03/22 02:36:49;;;;;;;;;;;;;;;7.78;88.97;98338.00;5083451;28;19924;-79
2023/03/22 02:39:25;;;;;;;;;;;;;;;7.75;88.76;98327.88;5093056;28;19927;-78
2023/03/22 02:42:11;;;;;;;;;;;;;;;7.85;88.16;98329.88;5088451;28;19965;-78
2023/03/22 02:44:40;;;;;;;;;;;;;;;7.73;88.60;98326.50;5074402;28;19916;-78
2023/03/22 02:47:10;;;;;;;;;;;;;;;7.87;87.56;98317.94;5065861;28;19927;-79
2023/03/22 02:49:42;;;;;;;;;;;;;;;7.84;88.40;98325.63;5087848;28;19951;-78
2023/03/22 02:52:11;;;;;;;;;;;;;;;7.91;87.92;98315.59;5089272;28;19923;-79
2023/03/22 02:54:42;;;;;;;;;;;;;;;7.84;87.69;98315.00;5087650;28;20395;-79
2023/03/22 02:57:15;;;;;;;;;;;;;;;7.85;87.82;98314.72;5087112;28;19923;-78
2023/03/22 02:59:42;;;;;;;;;;;;;;;7.82;87.88;98319.75;5080241;28;20372;-78
2023/03/22 03:02:09;;;;;;;;;;;;;;;7.71;88.27;98312.66;5082987;28;20032;-78
2023/03/22 03:04:36;;;;;;;;;;;;;;;7.76;88.12;98312.72;5074078;28;19928;-78
2023/03/22 03:07:04;;;;;;;;;;;;;;;7.75;88.55;98313.78;5088290;28;19924;-78
2023/03/22 03:09:30;;;;;;;;;;;;;;;7.73;88.08;98313.22;5072705;28;19927;-79
2023/03/22 03:11:55;;;;;;;;;;;;;;;7.64;88.20;98309.38;5089375;28;19916;-78
2023/03/22 03:14:21;;;;;;;;;;;;;;;7.63;88.14;98311.22;5087639;28;19974;-78
2023/03/22 03:16:52;;;;;;;;;;;;;;;7.66;88.39;98309.94;5091177;28;20011;-78
2023/03/22 03:19:32;;;;;;;;;;;;;;;7.63;88.16;98313.06;5075458;28;19923;-79
2023/03/22 03:22:06;;;;;;;;;;;;;;;7.68;88.11;98313.13;5090591;28;21098;-79
2023/03/22 03:24:38;;;;;;;;;;;;;;;7.71;88.21;98313.44;5064016;28;20376;-78
2023/03/22 03:27:16;;;;;;;;;;;;;;;7.61;88.23;98317.81;5085673;28;19917;-78
2023/03/22 03:29:44;;;;;;;;;;;;;;;7.61;88.23;98317.81;5082183;28;19924;-79
2023/03/22 03:32:20;;;;;;;;;;;;;;;7.69;88.08;98314.75;5079110;28;20300;-80
2023/03/22 03:34:58;;;;;;;;;;;;;;;7.53;89.32;98311.84;5087659;28;19939;-80
2023/03/22 03:37:29;;;;;;;;;;;;;;;7.63;88.51;98299.78;5080092;28;19963;-80
2023/03/22 03:40:01;;;;;;;;;;;;;;;7.69;88.17;98304.91;5086382;28;19927;-80
2023/03/22 03:42:27;;;;;;;;;;;;;;;7.62;88.15;98298.19;5086593;28;19912;-80
2023/03/22 03:44:52;;;;;;;;;;;;;;;7.62;88.50;98299.00;5087255;28;19938;-80
2023/03/22 03:47:18;;;;;;;;;;;;;;;7.63;88.10;98294.47;5083016;28;20033;-80
2023/03/22 03:49:43;;;;;;;;;;;;;;;7.58;88.50;98290.69;5084181;28;19916;-79
2023/03/22 03:52:08;;;;;;;;;;;;;;;7.56;88.33;98292.78;5083000;28;19920;-80
2023/03/22 03:54:34;;;;;;;;;;;;;;;7.59;88.06;98286.19;5080944;28;20426;-80
2023/03/22 03:57:00;;;;;;;;;;;;;;;7.45;88.58;98285.72;5084776;28;20288;-80
2023/03/22 03:59:25;;;;;;;;;;;;;;;7.58;87.80;98289.88;5063318;28;20433;-80
2023/03/22 04:01:51;;;;;;;;;;;;;;;7.50;89.25;98285.78;5067982;28;20276;-80
2023/03/22 04:04:18;;;;;;;;;;;;;;;7.49;88.97;98281.50;5066990;28;19920;-78
2023/03/22 04:06:43;;;;;;;;;;;;;;;7.47;88.29;98286.25;5085568;28;19923;-78
2023/03/22 04:09:08;;;;;;;;;;;;;;;7.53;88.15;98282.63;5079953;28;19920;-78
2023/03/22 04:11:34;;;;;;;;;;;;;;;7.50;88.82;98277.81;5066886;28;19924;-78
2023/03/22 04:13:59;;;;;;;;;;;;;;;7.50;88.27;98279.66;5052261;28;19924;-79
2023/03/22 04:16:24;;;;;;;;;;;;;;;7.54;88.24;98280.78;5066961;28;19928;-78
2023/03/22 04:18:50;;;;;;;;;;;;;;;7.46;88.72;98279.38;5058657;28;20363;-79
2023/03/22 04:21:15;;;;;;;;;;;;;;;7.34;89.04;98275.16;5080564;28;20016;-78
2023/03/22 04:23:40;;;;;;;;;;;;;;;7.35;88.81;98274.94;5079613;28;19958;-78
2023/03/22 04:26:05;;;;;;;;;;;;;;;7.01;89.57;98269.84;5055214;28;21211;-78
2023/03/22 04:28:32;;;;;;;;;;;;;;;6.80;90.33;98268.69;5081637;28;19931;-78
2023/03/22 04:30:58;;;;;;;;;;;;;;;6.81;90.28;98272.97;5058779;28;19964;-78
2023/03/22 04:33:25;;;;;;;;;;;;;;;6.71;89.85;98270.09;5058721;28;19921;-78
2023/03/22 04:35:55;;;;;;;;;;;;;;;6.80;90.45;98266.03;5071686;28;19932;-78
2023/03/22 04:38:21;;;;;;;;;;;;;;;7.22;90.13;98263.84;5073777;28;19923;-78
2023/03/22 04:40:46;;;;;;;;;;;;;;;7.28;88.82;98265.50;5051113;28;19939;-80
2023/03/22 04:43:12;;;;;;;;;;;;;;;6.82;87.67;98256.78;5089425;28;20304;-80
2023/03/22 04:45:37;;;;;;;;;;;;;;;6.91;90.13;98262.50;5085735;28;20354;-80
2023/03/22 04:48:02;;;;;;;;;;;;;;;6.79;88.20;98259.13;5085692;28;19963;-80
2023/03/22 04:50:28;;;;;;;;;;;;;;;7.00;88.33;98255.78;5064097;28;19963;-81
2023/03/22 04:52:53;;;;;;;;;;;;;;;7.26;87.70;98260.47;5082060;28;19927;-81
2023/03/22 04:55:18;;;;;;;;;;;;;;;6.53;88.54;98257.06;5088451;28;20691;-78
2023/03/22 04:57:44;;;;;;;;;;;;;;;7.10;88.37;98261.25;5066094;28;20445;-77
2023/03/22 05:00:10;;;;;;;;;;;;;;;7.37;86.75;98266.72;5087177;28;19916;-80
2023/03/22 05:02:37;;;;;;;;;;;;;;;7.34;86.38;98261.88;5057175;28;19950;-78
2023/03/22 05:05:03;;;;;;;;;;;;;;;7.17;86.06;98261.91;5071929;28;19939;-78
2023/03/22 05:07:28;;;;;;;;;;;;;;;7.35;85.41;98261.66;5063345;28;20007;-78
2023/03/22 05:09:54;;;;;;;;;;;;;;;7.32;86.38;98267.44;5066376;28;19928;-78
2023/03/22 05:12:19;;;;;;;;;;;;;;;7.25;86.51;98255.41;5079188;28;19928;-78
2023/03/22 05:14:44;;;;;;;;;;;;;;;7.22;86.25;98251.38;5078713;28;19928;-78
2023/03/22 05:17:10;;;;;;;;;;;;;;;6.80;88.26;98260.72;5078111;28;19924;-79
2023/03/22 05:19:35;;;;;;;;;;;;;;;6.95;87.47;98255.69;5050403;28;19931;-79
2023/03/22 05:22:00;;;;;;;;;;;;;;;7.10;87.40;98257.81;5078297;28;19928;-78
2023/03/22 05:24:26;;;;;;;;;;;;;;;7.09;87.65;98253.53;5051568;28;20368;-79
2023/03/22 05:26:52;;;;;;;;;;;;;;;7.10;87.80;98250.63;5063779;28;20018;-80
2023/03/22 05:29:18;;;;;;;;;;;;;;;7.07;88.01;98245.00;5055798;28;20044;-79
2023/03/22 05:31:43;;;;;;;;;;;;;;;7.06;87.48;98254.81;5083102;28;19946;-79
2023/03/22 05:34:09;;;;;;;;;;;;;;;6.96;89.13;98240.56;5052669;28;20018;-78
2023/03/22 05:36:37;;;;;;;;;;;;;;;7.12;88.40;98259.16;5060654;28;21399;-80
2023/03/22 05:39:03;;;;;;;;;;;;;;;6.91;89.26;98256.41;5054665;28;19934;-78
2023/03/22 05:41:30;;;;;;;;;;;;;;;7.05;88.60;98255.88;5081584;28;19928;-79
2023/03/22 05:43:55;;;;;;;;;;;;;;;7.10;89.07;98261.25;5077414;28;19926;-79
2023/03/22 05:46:21;;;;;;;;;;;;;;;7.15;88.25;98260.53;5078634;28;20731;-79
2023/03/22 05:48:46;;;;;;;;;;;;;;;7.23;88.19;98266.22;5054066;28;20728;-79
2023/03/22 05:51:16;;;;;;;;;;;;;;;7.25;87.43;98266.78;5085278;28;19924;-79
2023/03/22 05:53:41;;;;;;;;;;;;;;;7.23;88.57;98263.59;5076601;28;20272;-80
2023/03/22 05:56:08;;;;;;;;;;;;;;;7.27;88.35;98264.69;5048335;28;19936;-79
2023/03/22 05:58:34;;;;;;;;;;;;;;;7.30;88.14;98264.22;5084627;28;19920;-79
2023/03/22 06:01:06;;;;;;;;;;;;;;;7.24;89.42;98261.75;5060498;28;19924;-79
2023/03/22 06:03:32;;;;;;;;;;;;;;;7.34;88.86;98259.22;5083396;28;19920;-79
2023/03/22 06:05:57;;;;;;;;;;;;;;;7.25;89.42;98256.19;5076990;28;19927;-79
2023/03/22 06:08:22;;;;;;;;;;;;;;;7.40;88.56;98248.44;5053286;28;19943;-79
2023/03/22 06:10:49;;;;;;;;;;;;;;;7.32;89.23;98259.47;5073073;28;19924;-78
2023/03/22 06:13:18;;;;;;;;;;;;;;;7.39;90.13;98254.00;5077410;28;19977;-79
2023/03/22 06:15:44;;;;;;;;;;;;;;;7.47;89.48;98253.59;5068787;28;19979;-79
2023/03/22 06:18:09;;;;;;;;;;;;;;;7.39;89.61;98254.00;5084938;28;20039;-79
2023/03/22 06:20:35;;;;;;;;;;;;;;;7.47;88.67;98254.41;5091484;28;19916;-79
2023/03/22 06:23:01;;;;;;;;;;;;;;;7.44;88.68;98252.25;5086572;28;20299;-79
2023/03/22 06:25:26;;;;;;;;;;;;;;;7.51;88.67;98250.22;5082528;28;19920;-79
2023/03/22 06:27:52;;;;;;;;;;;;;;;7.50;89.29;98247.81;5089470;28;19931;-79
2023/03/22 06:30:17;;;;;;;;;;;;;;;7.46;89.04;98250.16;5089654;28;19917;-79
2023/03/22 06:32:43;;;;;;;;;;;;;;;7.53;89.83;98248.13;5082931;28;19916;-79
2023/03/22 06:35:08;;;;;;;;;;;;;;;7.55;89.22;98248.69;5071990;28;19928;-79
2023/03/22 06:37:34;;;;;;;;;;;;;;;7.49;88.72;98246.22;5082579;28;19920;-79
2023/03/22 06:39:59;;;;;;;;;;;;;;;7.52;88.92;98259.81;5092517;28;19928;-79
2023/03/22 06:42:25;;;;;;;;;;;;;;;7.49;90.17;98254.19;5087776;28;19928;-79
2023/03/22 06:44:50;;;;;;;;;;;;;;;7.52;89.22;98257.16;5083007;28;20424;-79
2023/03/22 06:47:15;;;;;;;;;;;;;;;7.51;89.57;98250.22;5085165;28;19924;-79
2023/03/22 06:49:40;;;;;;;;;;;;;;;7.52;89.80;98256.34;5071256;28;19921;-79
2023/03/22 06:52:06;;;;;;;;;;;;;;;7.62;89.57;98253.03;5071902;28;20299;-79
2023/03/22 06:54:31;;;;;;;;;;;;;;;7.58;89.35;98256.16;5073002;28;19924;-78
2023/03/22 06:56:56;;;;;;;;;;;;;;;7.59;90.45;98254.31;5095018;28;20015;-79
2023/03/22 06:59:22;;;;;;;;;;;;;;;7.56;89.48;98247.63;5088937;28;19924;-79
2023/03/22 07:01:47;;;;;;;;;;;;;;;7.62;89.62;98255.69;5088414;28;19979;-79
2023/03/22 07:04:12;;;;;;;;;;;;;;;7.58;89.98;98260.66;5073296;28;20023;-79
2023/03/22 07:06:38;;;;;;;;;;;;;;;7.66;89.00;98262.13;5090791;28;20031;-79
2023/03/22 07:09:03;;;;;;;;;;;;;;;7.72;89.18;98258.47;5089172;28;19927;-78
2023/03/22 07:11:28;;;;;;;;;;;;;;;7.71;88.69;98251.56;5086978;28;19920;-79
2023/03/22 07:13:54;;;;;;;;;;;;;;;7.71;88.17;98248.91;5079302;28;19916;-79
2023/03/22 07:16:19;;;;;;;;;;;;;;;7.78;88.34;98249.53;5081611;28;19920;-79
2023/03/22 07:18:45;;;;;;;;;;;;;;;7.80;89.01;98240.25;5069012;28;20031;-78
2023/03/22 07:21:10;;;;;;;;;;;;;;;7.84;88.53;98251.22;5084775;28;20498;-79
2023/03/22 07:23:36;;;;;;;;;;;;;;;7.89;88.59;98243.31;5089892;28;20342;-79
2023/03/22 07:26:01;;;;;;;;;;;;;;;7.82;89.71;98243.47;5073639;28;19973;-79
2023/03/22 07:28:26;;;;;;;;;;;;;;;7.89;89.71;98252.09;5087921;28;20009;-80
2023/03/22 07:30:58;;;;;;;;;;;;;;;7.89;89.94;98243.31;5077360;28;19924;-79
2023/03/22 07:33:24;;;;;;;;;;;;;;;7.98;90.22;98244.50;5083920;28;19920;-80
2023/03/22 07:35:49;;;;;;;;;;;;;;;8.06;89.77;98244.09;5087778;28;19934;-78
2023/03/22 07:38:14;;;;;;;;;;;;;;;8.08;90.28;98234.00;5090786;28;20387;-79
2023/03/22 07:40:39;;;;;;;;;;;;;;;8.11;88.98;98226.31;5090625;28;19924;-79
2023/03/22 07:43:05;;;;;;;;;;;;;;;8.25;88.75;98229.41;5085089;28;19920;-78
2023/03/22 07:45:30;;;;;;;;;;;;;;;8.25;88.70;98224.09;5083582;28;19928;-79
2023/03/22 07:47:55;;;;;;;;;;;;;;;8.29;89.15;98219.94;5064655;28;19920;-79
2023/03/22 07:50:20;;;;;;;;;;;;;;;8.34;89.40;98227.16;5071871;28;19964;-79
2023/03/22 07:52:46;;;;;;;;;;;;;;;8.39;89.06;98216.59;5058891;28;19920;-78
2023/03/22 07:55:12;;;;;;;;;;;;;;;8.43;89.94;98212.38;5074290;28;19933;-79
2023/03/22 07:57:38;;;;;;;;;;;;;;;8.51;88.86;98214.56;5059562;28;20489;-79
2023/03/22 08:00:04;;;;;;;;;;;;;;;8.60;88.27;98216.53;5089696;28;19916;-80
2023/03/22 08:02:30;;;;;;;;;;;;;;;8.61;87.79;98210.16;5083576;28;19916;-79
2023/03/22 08:04:55;;;;;;;;;;;;;;;8.66;88.33;98210.22;5074349;28;20112;-79
2023/03/22 08:07:21;;;;;;;;;;;;;;;8.73;88.36;98208.16;5087446;28;19931;-79
2023/03/22 08:09:46;;;;;;;;;;;;;;;8.80;88.13;98208.72;5081247;28;19916;-79
2023/03/22 08:12:12;;;;;;;;;;;;;;;8.92;87.68;98213.91;5081359;28;19923;-79
2023/03/22 08:14:37;;;;;;;;;;;;;;;9.02;87.11;98208.69;5043741;28;19967;-79
2023/03/22 08:17:03;;;;;;;;;;;;;;;9.06;87.21;98210.56;5081432;28;20026;-79
2023/03/22 08:19:29;;;;;;;;;;;;;;;9.03;87.02;98208.44;5082728;28;19920;-80
2023/03/22 08:21:54;;;;;;;;;;;;;;;9.03;86.81;98204.94;5081503;28;19931;-79
2023/03/22 08:24:20;;;;;;;;;;;;;;;9.14;86.31;98211.16;5088882;28;20384;-79
2023/03/22 08:26:48;;;;;;;;;;;;;;;9.20;86.05;98202.13;5087287;28;19969;-80
2023/03/22 08:29:13;;;;;;;;;;;;;;;9.21;85.88;98206.44;5081785;28;19916;-80
2023/03/22 08:31:38;;;;;;;;;;;;;;;9.15;85.79;98204.78;5067089;28;19942;-80
2023/03/22 08:34:04;;;;;;;;;;;;;;;9.21;85.60;98196.59;5073833;28;19924;-79
2023/03/22 08:36:29;;;;;;;;;;;;;;;9.24;85.69;98208.59;5068677;28;19981;-80
2023/03/22 08:38:55;;;;;;;;;;;;;;;9.29;85.46;98195.28;5081609;28;19924;-80
2023/03/22 08:41:22;;;;;;;;;;;;;;;9.24;84.88;98184.63;5061912;28;19924;-80
2023/03/22 08:43:47;;;;;;;;;;;;;;;9.28;85.39;98196.38;5066204;28;20009;-79
2023/03/22 08:46:12;;;;;;;;;;;;;;;9.35;84.87;98191.63;5081898;28;20022;-80
2023/03/22 08:48:40;;;;;;;;;;;;;;;9.44;85.10;98206.03;5062368;28;19920;-80
2023/03/22 08:51:05;;;;;;;;;;;;;;;9.43;84.89;98197.28;5065598;28;20062;-79
2023/03/22 08:53:31;;;;;;;;;;;;;;;9.46;84.56;98207.41;5084042;28;20003;-80
2023/03/22 08:55:57;;;;;;;;;;;;;;;9.46;84.43;98219.91;5069159;28;19926;-79
2023/03/22 08:58:22;;;;;;;;;;;;;;;9.39;84.07;98222.78;5084072;28;20018;-79
2023/03/22 09:00:47;;;;;;;;;;;;;;;9.41;84.78;98223.38;5054999;28;19920;-79
2023/03/22 09:03:13;;;;;;;;;;;;;;;9.38;84.33;98220.38;5043592;28;20010;-79
2023/03/22 09:05:38;;;;;;;;;;;;;;;9.22;83.60;98234.66;5086718;28;19960;-79
2023/03/22 09:08:05;;;;;;;;;;;;;;;9.15;83.80;98236.72;5066558;28;19916;-79
2023/03/22 09:10:30;;;;;;;;;;;;;;;9.01;83.65;98247.00;5054315;28;19999;-79
2023/03/22 09:12:56;;;;;;;;;;;;;;;9.05;83.94;98235.59;5084878;28;20429;-79
2023/03/22 09:15:21;;;;;;;;;;;;;;;9.07;83.46;98228.16;5080713;28;19924;-79
2023/03/22 09:17:46;;;;;;;;;;;;;;;9.11;83.57;98212.47;5086280;28;19957;-79
2023/03/22 09:20:11;;;;;;;;;;;;;;;9.11;83.25;98209.81;5066120;28;19970;-79
2023/03/22 09:22:37;;;;;;;;;;;;;;;9.14;83.99;98208.50;5085006;28;19920;-79
2023/03/22 09:25:02;;;;;;;;;;;;;;;9.16;83.68;98193.06;5072863;28;19927;-79
2023/03/22 09:27:27;;;;;;;;;;;;;;;9.22;83.67;98174.22;5078586;28;19935;-79
2023/03/22 09:29:53;;;;;;;;;;;;;;;9.28;83.46;98167.06;5067298;28;19971;-79
2023/03/22 09:32:18;;;;;;;;;;;;;;;9.39;83.21;98166.84;5063635;28;19931;-79
2023/03/22 09:34:43;;;;;;;;;;;;;;;9.46;83.46;98169.28;5049924;28;19933;-79
2023/03/22 09:37:11;;;;;;;;;;;;;;;9.53;83.48;98172.53;5082150;28;20372;-79
2023/03/22 09:39:37;;;;;;;;;;;;;;;9.63;83.39;98168.06;5082701;28;19927;-80
2023/03/22 09:42:04;;;;;;;;;;;;;;;9.72;82.89;98176.38;5085512;28;19920;-79
2023/03/22 09:44:32;;;;;;;;;;;;;;;9.76;82.81;98156.16;5090301;28;19919;-79
2023/03/22 09:46:59;;;;;;;;;;;;;;;9.88;82.07;98156.72;5090936;28;20315;-80
2023/03/22 09:49:29;;;;;;;;;;;;;;;9.81;81.80;98156.16;5080131;28;19926;-79
2023/03/22 09:51:54;;;;;;;;;;;;;;;9.86;81.54;98150.88;5086316;28;19934;-79
2023/03/22 09:54:28;;;;;;;;;;;;;;;9.93;81.36;98148.75;5081167;28;19916;-79
2023/03/22 09:57:02;;;;;;;;;;;;;;;9.98;81.71;98135.44;5078004;28;19938;-79
2023/03/22 09:59:50;;;;;;;;;;;;;;;9.98;81.03;98146.09;5069555;28;20372;-79
2023/03/22 10:02:33;;;;;;;;;;;;;;;10.07;80.87;98152.53;5090068;28;19920;-79
2023/03/22 10:05:17;;;;;;;;;;;;;;;10.13;80.95;98142.72;5085858;28;19924;-80
2023/03/22 10:07:45;;;;;;;;;;;;;;;10.14;81.52;98129.13;5082255;28;19927;-79
2023/03/22 10:10:16;;;;;;;;;;;;;;;10.23;80.40;98132.06;5084137;28;19916;-79
2023/03/22 10:12:42;;;;;;;;;;;;;;;10.26;79.94;98119.03;5059868;28;19977;-79
2023/03/22 10:15:15;;;;;;;;;;;;;;;10.39;79.52;98128.38;5074994;28;20321;-79
2023/03/22 10:17:48;;;;;;;;;;;;;;;10.28;79.28;98108.91;5091307;28;20205;-79
2023/03/22 10:20:16;;;;;;;;;;;;;;;10.33;78.44;98118.78;5092758;28;19924;-79
2023/03/22 10:22:42;;;;;;;;;;;;;;;10.30;78.45;98116.63;5074192;28;20066;-79
2023/03/22 10:25:08;;;;;;;;;;;;;;;10.38;78.48;98116.09;5084356;28;20322;-79
2023/03/22 10:27:34;;;;;;;;;;;;;;;10.41;78.07;98110.25;5056557;28;19924;-80
2023/03/22 10:30:18;;;;;;;;;;;;;;;10.44;78.04;98113.16;5053932;28;20009;-79
2023/03/22 10:32:54;;;;;;;;;;;;;;;10.41;77.36;98111.06;5091891;28;20015;-80
2023/03/22 10:35:19;;;;;;;;;;;;;;;10.52;77.70;98122.53;5087548;28;19949;-80
2023/03/22 10:37:46;;;;;;;;;;;;;;;10.43;76.97;98108.91;5082284;28;19925;-79
2023/03/22 10:40:30;;;;;;;;;;;;;;;10.38;76.46;98124.09;5081507;28;20467;-80
2023/03/22 10:42:58;;;;;;;;;;;;;;;10.34;76.72;98115.84;5070271;28;19926;-80
2023/03/22 10:45:24;;;;;;;;;;;;;;;10.48;76.70;98122.25;5088342;28;19920;-79
2023/03/22 10:48:00;;;;;;;;;;;;;;;10.43;76.69;98126.78;5066837;28;19995;-80
2023/03/22 10:50:35;;;;;;;;;;;;;;;10.45;76.33;98122.78;5084258;28;19931;-80
2023/03/22 10:53:11;;;;;;;;;;;;;;;10.51;76.13;98137.72;5089513;28;19923;-80
2023/03/22 10:55:40;;;;;;;;;;;;;;;10.57;75.39;98124.41;5080082;28;19923;-79
2023/03/22 10:58:11;;;;;;;;;;;;;;;10.76;75.55;98122.81;5090754;28;20022;-79
2023/03/22 11:00:37;;;;;;;;;;;;;;;10.73;75.04;98120.66;5087383;28;19916;-80
2023/03/22 11:03:04;;;;;;;;;;;;;;;10.75;75.01;98123.84;5066325;28;19920;-80
2023/03/22 11:05:29;;;;;;;;;;;;;;;10.81;74.31;98125.47;5088194;28;19970;-80
2023/03/22 11:07:57;;;;;;;;;;;;;;;10.78;74.30;98115.31;5070989;28;19955;-79
2023/03/22 11:10:26;;;;;;;;;;;;;;;10.71;74.16;98120.13;5092921;28;20432;-79
2023/03/22 11:13:09;;;;;;;;;;;;;;;10.70;73.93;98111.34;5067742;28;19916;-79
2023/03/22 11:15:37;;;;;;;;;;;;;;;10.80;73.98;98107.84;5072399;28;20308;-80
2023/03/22 11:18:14;;;;;;;;;;;;;;;10.80;74.14;98118.53;5082156;28;19923;-80
2023/03/22 11:20:40;;;;;;;;;;;;;;;10.84;74.26;98106.25;5067609;28;20373;-79
2023/03/22 11:23:06;;;;;;;;;;;;;;;10.87;74.10;98108.38;5083504;28;19924;-80
2023/03/22 11:25:34;;;;;;;;;;;;;;;10.96;73.82;98098.78;5086018;28;19917;-80
2023/03/22 11:28:08;;;;;;;;;;;;;;;10.91;73.45;98098.78;5078848;28;20296;-80
2023/03/22 11:30:34;;;;;;;;;;;;;;;11.02;73.02;98089.69;5084327;28;20302;-80
2023/03/22 11:33:02;;;;;;;;;;;;;;;11.08;72.84;98077.91;5086847;28;19916;-80
2023/03/22 11:35:28;;;;;;;;;;;;;;;11.08;72.86;98083.25;5093744;28;19920;-80
2023/03/22 11:37:54;;;;;;;;;;;;;;;11.06;73.04;98096.88;5071832;28;20383;-80
2023/03/22 11:40:30;;;;;;;;;;;;;;;11.06;73.18;98086.22;5076129;28;19947;-79
2023/03/22 11:43:10;;;;;;;;;;;;;;;10.93;73.04;98086.75;5085072;28;19923;-80
2023/03/22 11:45:36;;;;;;;;;;;;;;;10.96;72.72;98080.09;5087097;28;19924;-80
2023/03/22 11:48:07;;;;;;;;;;;;;;;10.95;73.11;98065.94;5067118;28;20396;-79
2023/03/22 11:50:35;;;;;;;;;;;;;;;11.05;72.74;98057.88;5067878;28;19924;-80
2023/03/22 11:53:01;;;;;;;;;;;;;;;11.05;73.24;98067.78;5084406;28;19924;-80
2023/03/22 11:55:28;;;;;;;;;;;;;;;11.13;72.75;98062.69;5069556;28;19935;-80
2023/03/22 11:57:54;;;;;;;;;;;;;;;11.17;72.80;98063.75;5085353;28;19920;-80
2023/03/22 12:00:24;;;;;;;;;;;;;;;11.14;72.46;98056.28;5089517;28;19923;-80
2023/03/22 12:02:54;;;;;;;;;;;;;;;11.08;72.76;98056.56;5084557;28;19967;-80
2023/03/22 12:05:21;;;;;;;;;;;;;;;11.14;73.09;98055.47;5083385;28;19981;-80
2023/03/22 12:07:50;;;;;;;;;;;;;;;11.24;72.98;98056.25;5084369;28;20012;-80
2023/03/22 12:10:25;;;;;;;;;;;;;;;11.32;72.85;98058.34;5088434;28;19920;-80
2023/03/22 12:12:53;;;;;;;;;;;;;;;11.43;72.36;98055.66;5090809;28;19959;-80
2023/03/22 12:15:21;;;;;;;;;;;;;;;11.51;72.07;98060.44;5072110;28;19931;-79
2023/03/22 12:17:46;;;;;;;;;;;;;;;11.62;71.76;98068.13;5074489;28;20004;-81
2023/03/22 12:20:31;;;;;;;;;;;;;;;11.82;71.68;98076.09;5091873;28;20399;-80
2023/03/22 12:22:57;;;;;;;;;;;;;;;12.00;71.25;98070.13;5070729;28;19927;-80
2023/03/22 12:25:25;;;;;;;;;;;;;;;12.12;71.00;98077.00;5088570;28;20391;-80
2023/03/22 12:27:53;;;;;;;;;;;;;;;12.04;70.16;98081.84;5074106;28;19987;-81
2023/03/22 12:30:21;;;;;;;;;;;;;;;12.03;70.46;98058.84;5088131;28;19916;-81
2023/03/22 12:33:00;;;;;;;;;;;;;;;12.11;69.98;98075.41;5064915;28;20007;-79
2023/03/22 12:35:28;;;;;;;;;;;;;;;12.12;69.87;98072.47;5068726;28;19919;-79
2023/03/22 12:37:55;;;;;;;;;;;;;;;12.12;69.91;98075.16;5065788;28;19929;-80
2023/03/22 12:40:26;;;;;;;;;;;;;;;12.10;69.87;98076.50;5087719;28;19967;-79
2023/03/22 12:43:01;;;;;;;;;;;;;;;12.11;69.99;98078.88;5064770;28;20330;-79
2023/03/22 12:45:27;;;;;;;;;;;;;;;12.08;70.29;98075.97;5087017;28;19968;-79
2023/03/22 12:47:59;;;;;;;;;;;;;;;12.11;70.27;98075.41;5068783;28;19919;-79
2023/03/22 12:50:32;;;;;;;;;;;;;;;12.29;70.20;98072.88;5085709;28;20501;-79
2023/03/22 12:52:57;;;;;;;;;;;;;;;12.49;69.55;98080.75;5092171;28;19978;-80
2023/03/22 12:55:24;;;;;;;;;;;;;;;12.40;69.77;98065.59;5089667;28;19955;-79
2023/03/22 12:57:51;;;;;;;;;;;;;;;12.33;69.64;98060.53;5066773;28;19917;-79